Time;durP1;ratioP1;P1;durP2;ratioP2;P2;SDS_P1;SDS_P2;PMS_P1;PMS_P2;Temp;Humidity;BMP_temperature;BMP_pressure;BME280_temperature;BME280_humidity;BME280_pressure;Samples;Min_cycle;Max_cycle;Signal;HPM_P1;HPM_P2
2021/06/12 00:01:27;;;;;;;10.75;7.85;;;;;;;15.29;100.00;98177.94;5010271;28;20057;-76
2021/06/12 00:03:52;;;;;;;8.82;7.05;;;;;;;15.43;100.00;98182.19;5010735;28;20040;-76
2021/06/12 00:06:18;;;;;;;9.40;7.28;;;;;;;15.45;100.00;98179.09;5010641;28;20784;-77
2021/06/12 00:08:43;;;;;;;9.25;6.90;;;;;;;15.34;100.00;98177.81;5010924;28;20030;-76
2021/06/12 00:11:09;;;;;;;7.82;6.50;;;;;;;15.26;100.00;98170.31;5010649;28;20026;-75
2021/06/12 00:13:34;;;;;;;12.73;7.85;;;;;;;15.29;100.00;98166.91;5007707;28;20491;-76
2021/06/12 00:16:00;;;;;;;11.50;7.68;;;;;;;15.30;100.00;98163.03;4992930;28;20037;-75
2021/06/12 00:18:26;;;;;;;8.40;7.00;;;;;;;15.37;100.00;98160.63;4991059;28;20030;-76
2021/06/12 00:20:56;;;;;;;8.07;6.80;;;;;;;15.25;100.00;98168.69;5003432;28;20038;-76
2021/06/12 00:23:21;;;;;;;8.38;7.18;;;;;;;15.18;100.00;98179.38;5010518;28;20062;-75
2021/06/12 00:25:46;;;;;;;10.27;7.47;;;;;;;15.15;100.00;98169.00;5010831;28;20053;-75
2021/06/12 00:28:12;;;;;;;8.23;7.00;;;;;;;15.14;100.00;98170.13;5010597;28;20034;-75
2021/06/12 00:30:37;;;;;;;12.27;7.10;;;;;;;15.07;100.00;98164.28;5010487;28;20030;-76
2021/06/12 00:33:03;;;;;;;7.38;5.85;;;;;;;15.14;100.00;98175.63;4992855;28;20041;-76
2021/06/12 00:35:29;;;;;;;7.78;5.70;;;;;;;15.14;100.00;98157.16;5010492;28;20427;-75
2021/06/12 00:37:55;;;;;;;7.55;6.10;;;;;;;15.20;100.00;98166.06;5010340;28;20029;-78
2021/06/12 00:40:21;;;;;;;8.32;5.70;;;;;;;15.09;100.00;98170.28;5010483;28;20065;-76
2021/06/12 00:42:47;;;;;;;8.23;6.05;;;;;;;15.06;100.00;98166.22;4992895;28;20077;-81
2021/06/12 00:45:19;;;;;;;6.20;5.60;;;;;;;15.08;100.00;98160.38;4989474;28;20033;-81
2021/06/12 00:47:49;;;;;;;9.13;6.15;;;;;;;15.12;100.00;98164.13;4990348;28;20104;-80
2021/06/12 00:50:16;;;;;;;6.43;5.20;;;;;;;15.10;100.00;98167.19;4990834;28;20045;-81
2021/06/12 00:52:42;;;;;;;6.55;5.47;;;;;;;15.06;100.00;98159.88;4990413;28;20030;-81
2021/06/12 00:55:09;;;;;;;6.10;4.78;;;;;;;15.17;100.00;98158.44;4991364;28;20028;-80
2021/06/12 00:57:36;;;;;;;9.55;5.80;;;;;;;15.10;100.00;98166.38;4989289;28;20045;-80
2021/06/12 01:00:05;;;;;;;7.35;5.90;;;;;;;15.23;100.00;98159.91;4990599;28;20044;-79
2021/06/12 01:02:32;;;;;;;6.18;5.57;;;;;;;15.18;100.00;98168.34;4992123;28;20072;-80
2021/06/12 01:04:58;;;;;;;6.38;5.70;;;;;;;15.14;100.00;98161.84;5010208;28;20076;-80
2021/06/12 01:07:23;;;;;;;11.02;5.80;;;;;;;15.22;100.00;98155.56;5009837;28;20022;-79
2021/06/12 01:09:48;;;;;;;6.03;4.93;;;;;;;15.36;100.00;98161.75;5009781;28;20048;-81
2021/06/12 01:12:23;;;;;;;11.88;5.88;;;;;;;15.36;100.00;98167.25;5008933;28;20471;-80
2021/06/12 01:14:58;;;;;;;7.97;5.75;;;;;;;15.38;100.00;98159.50;5008546;28;20435;-79
2021/06/12 01:17:33;;;;;;;7.53;5.38;;;;;;;15.30;100.00;98163.84;5010035;28;20080;-80
2021/06/12 01:20:20;;;;;;;5.68;4.85;;;;;;;15.27;100.00;98152.66;5010109;28;20037;-81
2021/06/12 01:22:45;;;;;;;8.27;5.05;;;;;;;15.27;100.00;98149.88;5010101;28;20041;-79
2021/06/12 01:25:27;;;;;;;8.02;4.60;;;;;;;15.20;100.00;98155.06;5010467;28;20025;-80
2021/06/12 01:28:02;;;;;;;6.43;5.05;;;;;;;15.22;100.00;98147.28;5009959;28;20045;-80
2021/06/12 01:30:30;;;;;;;7.75;4.85;;;;;;;14.98;100.00;98150.44;5009951;28;20026;-80
2021/06/12 01:33:00;;;;;;;4.80;3.88;;;;;;;14.69;100.00;98147.44;4992158;28;20093;-79
2021/06/12 01:35:54;;;;;;;7.97;5.32;;;;;;;14.49;100.00;98148.78;5009785;28;20036;-80
2021/06/12 01:38:24;;;;;;;7.68;5.88;;;;;;;14.33;100.00;98131.03;4993921;28;20050;-80
2021/06/12 01:40:51;;;;;;;6.20;5.22;;;;;;;14.29;100.00;98136.34;4990304;28;20123;-77
2021/06/12 01:43:19;;;;;;;9.82;6.22;;;;;;;14.25;100.00;98140.03;4989900;28;20491;-80
2021/06/12 01:45:47;;;;;;;6.55;5.55;;;;;;;14.21;100.00;98141.78;4989339;28;20439;-82
2021/06/12 01:48:13;;;;;;;6.25;5.65;;;;;;;14.26;100.00;98142.47;4973165;28;20089;-80
2021/06/12 01:50:40;;;;;;;6.75;5.82;;;;;;;14.26;100.00;98134.22;4973159;28;20022;-78
2021/06/12 01:53:08;;;;;;;7.13;5.72;;;;;;;14.18;100.00;98139.66;4990830;28;20480;-80
2021/06/12 01:55:36;;;;;;;9.40;6.55;;;;;;;14.12;100.00;98130.75;4991097;28;20037;-79
2021/06/12 01:58:05;;;;;;;6.07;5.47;;;;;;;14.11;100.00;98142.03;4990397;28;20061;-78
2021/06/12 02:00:31;;;;;;;7.63;5.70;;;;;;;14.24;100.00;98144.72;4990571;28;20041;-78
2021/06/12 02:02:58;;;;;;;7.18;5.53;;;;;;;14.36;100.00;98147.75;4989849;28;20031;-78
2021/06/12 02:05:24;;;;;;;8.63;5.82;;;;;;;14.33;100.00;98136.56;4972768;28;20073;-79
2021/06/12 02:07:51;;;;;;;6.47;5.40;;;;;;;14.33;100.00;98142.06;4989943;28;20038;-80
2021/06/12 02:10:24;;;;;;;10.77;5.43;;;;;;;14.39;100.00;98147.13;4972247;28;20037;-79
2021/06/12 02:12:51;;;;;;;6.85;5.82;;;;;;;14.43;100.00;98144.53;4980157;28;20030;-79
2021/06/12 02:15:17;;;;;;;10.27;5.72;;;;;;;14.39;100.00;98144.38;5009006;28;20034;-79
2021/06/12 02:17:43;;;;;;;4.85;4.30;;;;;;;14.43;100.00;98147.31;5009330;28;20718;-78
2021/06/12 02:20:11;;;;;;;4.75;4.22;;;;;;;14.39;100.00;98152.63;5012186;28;20041;-80
2021/06/12 02:22:41;;;;;;;6.43;5.05;;;;;;;14.29;100.00;98146.53;5012519;28;20108;-77
2021/06/12 02:25:09;;;;;;;6.95;5.43;;;;;;;14.27;100.00;98146.03;5012148;28;20033;-78
2021/06/12 02:27:37;;;;;;;7.88;4.93;;;;;;;14.26;100.00;98149.91;5012939;28;20115;-79
2021/06/12 02:30:05;;;;;;;6.60;5.07;;;;;;;14.26;100.00;98155.41;5012850;28;20026;-84
2021/06/12 02:32:35;;;;;;;5.00;4.50;;;;;;;14.25;100.00;98151.84;4995463;28;20442;-80
2021/06/12 02:35:00;;;;;;;8.10;5.13;;;;;;;14.28;100.00;98145.72;5012594;28;20467;-78
2021/06/12 02:37:26;;;;;;;6.97;4.43;;;;;;;14.34;100.00;98162.94;5012653;28;20021;-80
2021/06/12 02:39:52;;;;;;;7.50;5.25;;;;;;;14.38;100.00;98161.19;5012592;28;20109;-79
2021/06/12 02:42:17;;;;;;;5.97;4.95;;;;;;;14.38;100.00;98161.19;5012474;28;20045;-79
2021/06/12 02:44:42;;;;;;;6.00;5.30;;;;;;;14.39;100.00;98163.63;5012839;28;20146;-79
2021/06/12 02:47:10;;;;;;;6.70;4.80;;;;;;;14.51;100.00;98160.28;5012341;28;20395;-80
2021/06/12 02:49:38;;;;;;;7.43;4.88;;;;;;;14.50;100.00;98158.69;4994009;28;20505;-78
2021/06/12 02:52:10;;;;;;;6.50;4.80;;;;;;;14.46;100.00;98157.69;4975379;28;20031;-80
2021/06/12 02:54:37;;;;;;;11.48;5.03;;;;;;;14.40;100.00;98148.75;4993030;28;20040;-80
2021/06/12 02:57:04;;;;;;;6.15;5.28;;;;;;;14.50;100.00;98152.34;5001296;28;20034;-78
2021/06/12 02:59:31;;;;;;;6.07;5.18;;;;;;;14.42;100.00;98156.69;4980200;28;20030;-79
2021/06/12 03:01:58;;;;;;;7.38;5.18;;;;;;;14.44;100.00;98157.16;4992769;28;20027;-80
2021/06/12 03:04:24;;;;;;;6.35;5.00;;;;;;;14.57;100.00;98159.03;4994044;28;20034;-79
2021/06/12 03:06:51;;;;;;;5.00;4.50;;;;;;;14.51;100.00;98151.22;5011921;28;20414;-77
2021/06/12 03:09:19;;;;;;;4.78;3.90;;;;;;;14.56;100.00;98162.91;5011841;28;20033;-80
2021/06/12 03:11:46;;;;;;;7.32;4.82;;;;;;;14.55;100.00;98158.53;5011796;28;20052;-77
2021/06/12 03:14:14;;;;;;;5.07;4.30;;;;;;;14.56;100.00;98151.91;4992880;28;20438;-76
2021/06/12 03:16:42;;;;;;;7.60;4.40;;;;;;;14.51;100.00;98163.03;4992082;28;20062;-76
2021/06/12 03:19:10;;;;;;;5.00;3.88;;;;;;;14.58;100.00;98160.66;4991920;28;20030;-79
2021/06/12 03:21:36;;;;;;;6.25;4.93;;;;;;;14.49;100.00;98165.31;4991822;28;20034;-79
2021/06/12 03:24:02;;;;;;;6.72;5.50;;;;;;;14.43;100.00;98174.81;4999076;28;20360;-78
2021/06/12 03:26:28;;;;;;;8.25;6.22;;;;;;;14.37;100.00;98176.91;5011740;28;20035;-77
2021/06/12 03:28:54;;;;;;;6.25;5.63;;;;;;;14.33;100.00;98166.81;4993711;28;20022;-78
2021/06/12 03:31:20;;;;;;;5.65;4.93;;;;;;;14.49;100.00;98168.06;5011149;28;20064;-78
2021/06/12 03:33:46;;;;;;;6.20;4.95;;;;;;;14.51;100.00;98165.78;5010113;28;20034;-77
2021/06/12 03:36:12;;;;;;;6.75;5.47;;;;;;;14.52;100.00;98170.19;5011467;28;20116;-78
2021/06/12 03:38:38;;;;;;;8.50;5.07;;;;;;;14.51;100.00;98175.97;5011109;28;20559;-80
2021/06/12 03:41:05;;;;;;;12.20;5.00;;;;;;;14.47;100.00;98171.09;4993080;28;20038;-79
2021/06/12 03:43:31;;;;;;;5.97;4.65;;;;;;;14.47;100.00;98170.31;5010975;28;20096;-78
2021/06/12 03:45:59;;;;;;;6.97;5.68;;;;;;;14.62;100.00;98160.84;5011081;28;20128;-80
2021/06/12 03:48:25;;;;;;;5.43;4.13;;;;;;;14.93;100.00;98170.72;5010634;28;20052;-78
2021/06/12 03:50:54;;;;;;;5.80;5.05;;;;;;;15.14;100.00;98167.34;5011003;28;20030;-77
2021/06/12 03:53:21;;;;;;;6.82;4.63;;;;;;;15.40;100.00;98171.81;5011004;28;20051;-78
2021/06/12 03:55:50;;;;;;;5.15;4.60;;;;;;;15.45;100.00;98174.41;4993506;28;20032;-77
2021/06/12 03:58:17;;;;;;;5.75;4.00;;;;;;;15.88;97.54;98174.47;5010576;28;20042;-76
2021/06/12 04:00:44;;;;;;;7.32;4.10;;;;;;;16.12;95.06;98174.00;5010473;28;20080;-78
2021/06/12 04:03:10;;;;;;;7.88;4.15;;;;;;;16.48;93.49;98171.66;5010967;28;20084;-78
2021/06/12 04:05:35;;;;;;;4.78;3.88;;;;;;;16.72;91.37;98170.34;4994521;28;20482;-78
2021/06/12 04:08:01;;;;;;;4.20;3.75;;;;;;;17.16;89.45;98175.38;5015150;28;20029;-77
2021/06/12 04:10:27;;;;;;;3.55;3.15;;;;;;;17.36;85.77;98166.31;5010624;28;20033;-79
2021/06/12 04:12:53;;;;;;;5.97;3.03;;;;;;;17.85;82.77;98169.44;5010826;28;20025;-73
2021/06/12 04:15:18;;;;;;;4.93;3.28;;;;;;;17.46;83.77;98168.69;5010366;28;20037;-74
2021/06/12 04:17:47;;;;;;;3.63;3.33;;;;;;;17.03;85.66;98157.88;5010303;28;20037;-74
2021/06/12 04:20:13;;;;;;;5.03;2.85;;;;;;;17.03;86.64;98168.94;5010255;28;20076;-76
2021/06/12 04:22:39;;;;;;;4.78;3.15;;;;;;;17.05;85.54;98169.41;5010467;28;20113;-77
2021/06/12 04:25:06;;;;;;;5.57;3.20;;;;;;;17.37;83.84;98167.13;5010800;28;20025;-76
2021/06/12 04:27:33;;;;;;;4.20;2.65;;;;;;;17.05;86.29;98172.16;5010195;28;20030;-74
2021/06/12 04:29:58;;;;;;;4.55;3.78;;;;;;;17.24;85.13;98179.22;5010165;28;20026;-75
2021/06/12 04:32:23;;;;;;;4.63;3.35;;;;;;;17.33;85.21;98183.56;5010179;28;20075;-74
2021/06/12 04:34:49;;;;;;;4.70;3.20;;;;;;;17.54;84.25;98186.38;5002466;28;20438;-74
2021/06/12 04:37:14;;;;;;;4.72;3.85;;;;;;;17.47;84.91;98184.16;4990252;28;20026;-74
2021/06/12 04:39:40;;;;;;;5.03;4.53;;;;;;;16.82;88.26;98179.06;4990364;28;20490;-73
2021/06/12 04:42:05;;;;;;;11.02;4.65;;;;;;;16.81;88.39;98177.47;4989902;28;20480;-73
2021/06/12 04:44:31;;;;;;;4.53;3.63;;;;;;;16.53;90.34;98176.22;4990302;28;20161;-74
2021/06/12 04:46:56;;;;;;;7.72;3.53;;;;;;;16.05;92.09;98188.28;4989674;28;20058;-73
2021/06/12 04:49:21;;;;;;;11.55;6.90;;;;;;;15.97;94.35;98186.34;4990301;28;20022;-76
2021/06/12 04:51:47;;;;;;;4.55;4.15;;;;;;;16.16;93.31;98188.78;4999917;28;20022;-76
2021/06/12 04:54:12;;;;;;;8.10;4.85;;;;;;;16.02;94.09;98188.13;5009698;28;20084;-76
2021/06/12 04:56:38;;;;;;;6.15;4.60;;;;;;;15.97;95.06;98186.34;5010292;28;20034;-75
2021/06/12 04:59:04;;;;;;;6.47;4.45;;;;;;;16.03;93.85;98190.56;5009696;28;20072;-79
2021/06/12 05:01:29;;;;;;;4.60;4.20;;;;;;;15.76;95.13;98193.63;5009716;28;20038;-74
2021/06/12 05:03:55;;;;;;;3.97;3.47;;;;;;;16.13;94.96;98196.91;5009599;28;20044;-73
2021/06/12 05:06:20;;;;;;;4.63;4.15;;;;;;;16.66;90.66;98193.75;4991714;28;20033;-75
2021/06/12 05:08:46;;;;;;;3.75;3.40;;;;;;;16.37;91.43;98184.22;5009472;28;20124;-74
2021/06/12 05:11:11;;;;;;;9.25;5.38;;;;;;;16.36;91.47;98198.31;5009293;28;20044;-74
2021/06/12 05:13:37;;;;;;;4.28;3.72;;;;;;;16.64;90.70;98187.75;5009678;28;20112;-73
2021/06/12 05:16:03;;;;;;;6.88;4.30;;;;;;;16.53;89.96;98185.31;5009372;28;20029;-74
2021/06/12 05:18:39;;;;;;;4.22;3.85;;;;;;;16.43;91.77;98187.59;5009339;28;20112;-74
2021/06/12 05:21:05;;;;;;;;;;;;;;;17.13;88.45;98190.66;5010010;28;20387;-74
2021/06/12 05:23:32;;;;;;;5.32;4.47;;;;;;;16.69;89.34;98190.34;4991760;28;19917;-79
2021/06/12 05:25:57;;;;;;;6.35;4.00;;;;;;;16.66;89.67;98186.28;5010091;28;20026;-75
2021/06/12 05:28:23;;;;;;;7.47;3.65;;;;;;;16.57;90.07;98183.53;4998257;28;20038;-76
2021/06/12 05:30:48;;;;;;;5.35;4.57;;;;;;;16.76;89.46;98191.44;4990516;28;20030;-86
2021/06/12 05:33:13;;;;;;;7.32;5.68;;;;;;;17.40;87.23;98194.09;4975110;28;20452;-75
2021/06/12 05:35:39;;;;;;;4.63;4.03;;;;;;;17.79;83.92;98201.22;4989907;28;20038;-76
2021/06/12 05:38:05;;;;;;;9.48;7.43;;;;;;;18.18;82.53;98203.53;4989810;28;20030;-74
2021/06/12 05:40:31;;;;;;;15.55;10.15;;;;;;;18.42;80.90;98211.16;4990110;28;20034;-76
2021/06/12 05:42:56;;;;;;;4.72;4.20;;;;;;;18.07;81.13;98197.56;4990053;28;20577;-78
2021/06/12 05:45:21;;;;;;;3.85;3.33;;;;;;;18.56;79.20;98198.63;4989695;28;20038;-77
2021/06/12 05:47:47;;;;;;;4.85;3.88;;;;;;;17.67;82.69;98187.31;4971871;28;20204;-73
2021/06/12 05:50:12;;;;;;;6.03;3.72;;;;;;;17.76;82.68;98183.31;4989501;28;20050;-80
2021/06/12 05:52:38;;;;;;;6.13;4.65;;;;;;;17.47;84.35;98188.88;5005310;28;20034;-77
2021/06/12 05:55:04;;;;;;;5.93;4.22;;;;;;;17.69;83.51;98182.25;5013154;28;20467;-76
2021/06/12 05:57:29;;;;;;;4.53;4.10;;;;;;;17.78;83.55;98178.28;5013265;28;20033;-76
2021/06/12 05:59:54;;;;;;;5.07;3.85;;;;;;;18.65;78.17;98190.22;5012939;28;20025;-75
2021/06/12 06:02:20;;;;;;;4.45;3.33;;;;;;;18.93;77.30;98198.72;5013156;28;20112;-74
2021/06/12 06:04:45;;;;;;;4.90;3.30;;;;;;;18.93;76.82;98191.22;4995467;28;20116;-77
2021/06/12 06:07:11;;;;;;;4.15;3.72;;;;;;;18.53;79.07;98187.44;5012907;28;20038;-77
2021/06/12 06:09:36;;;;;;;6.32;3.45;;;;;;;18.83;78.30;98194.41;5012841;28;20040;-77
2021/06/12 06:12:02;;;;;;;6.55;3.40;;;;;;;18.78;77.65;98189.13;5012891;28;20108;-79
2021/06/12 06:14:27;;;;;;;4.00;3.33;;;;;;;19.38;75.81;98190.34;5013668;28;20021;-81
2021/06/12 06:16:52;;;;;;;3.47;3.03;;;;;;;19.50;74.96;98182.03;5013813;28;20715;-82
2021/06/12 06:19:18;;;;;;;6.57;2.90;;;;;;;19.53;74.25;98186.88;5016225;28;20574;-87
2021/06/12 06:21:43;;;;;;;4.18;2.70;;;;;;;19.38;75.32;98185.59;5015417;28;20078;-85
2021/06/12 06:24:09;;;;;;;6.35;2.88;;;;;;;19.33;75.59;98176.72;5014885;28;20076;-80
2021/06/12 06:26:34;;;;;;;3.25;2.90;;;;;;;19.08;76.24;98190.53;5024956;28;20397;-86
2021/06/12 06:29:00;;;;;;;3.97;3.30;;;;;;;19.35;75.43;98185.47;5002332;28;20133;-79
2021/06/12 06:31:25;;;;;;;3.35;3.05;;;;;;;19.67;73.56;98181.81;5001414;28;20030;-79
2021/06/12 06:33:51;;;;;;;7.03;3.13;;;;;;;19.98;72.05;98184.75;5013594;28;20502;-78
2021/06/12 06:36:16;;;;;;;2.80;2.58;;;;;;;19.98;71.71;98189.47;5012723;28;20034;-79
2021/06/12 06:38:42;;;;;;;4.95;3.10;;;;;;;20.11;71.98;98191.84;5012402;28;20026;-74
2021/06/12 06:41:08;;;;;;;5.45;3.50;;;;;;;19.43;73.91;98181.78;5012607;28;20022;-77
2021/06/12 06:43:34;;;;;;;3.42;3.05;;;;;;;19.74;73.39;98182.00;5001650;28;20108;-75
2021/06/12 06:45:59;;;;;;;3.20;2.90;;;;;;;19.87;71.97;98191.94;4994744;28;20088;-78
2021/06/12 06:48:25;;;;;;;3.40;2.58;;;;;;;19.94;73.07;98192.16;4975690;28;20407;-78
2021/06/12 06:50:50;;;;;;;5.15;3.72;;;;;;;19.89;73.58;98192.38;4992438;28;20046;-75
2021/06/12 06:53:16;;;;;;;11.95;4.43;;;;;;;20.13;73.88;98192.34;4991504;28;20033;-76
2021/06/12 06:55:42;;;;;;;3.97;3.58;;;;;;;20.16;72.77;98188.84;4992677;28;20038;-75
2021/06/12 06:58:07;;;;;;;3.78;3.35;;;;;;;20.33;71.84;98200.88;5010359;28;20479;-75
2021/06/12 07:00:33;;;;;;;5.28;3.90;;;;;;;20.46;72.41;98196.84;5010523;28;20033;-74
2021/06/12 07:03:00;;;;;;;4.15;3.10;;;;;;;20.44;73.59;98204.75;5010880;28;20022;-76
2021/06/12 07:05:26;;;;;;;4.40;3.85;;;;;;;20.39;73.24;98196.69;5006793;28;20125;-78
2021/06/12 07:07:51;;;;;;;5.28;3.17;;;;;;;20.79;70.91;98206.56;4982400;28;20026;-75
2021/06/12 07:10:17;;;;;;;7.00;4.88;;;;;;;20.78;72.32;98206.91;5005949;28;20112;-74
2021/06/12 07:12:42;;;;;;;4.78;4.05;;;;;;;21.06;70.61;98204.88;5011519;28;20022;-74
2021/06/12 07:15:09;;;;;;;7.43;3.95;;;;;;;20.66;72.55;98204.19;5002882;28;20518;-78
2021/06/12 07:17:34;;;;;;;8.70;3.95;;;;;;;20.82;71.34;98196.69;4993946;28;20100;-79
2021/06/12 07:20:03;;;;;;;6.47;3.30;;;;;;;21.03;70.13;98193.66;4997756;28;20089;-74
2021/06/12 07:22:28;;;;;;;7.88;3.42;;;;;;;21.11;68.81;98199.06;4991898;28;20033;-78
2021/06/12 07:24:55;;;;;;;3.92;3.17;;;;;;;20.94;68.74;98202.19;4997317;28;20034;-75
2021/06/12 07:27:21;;;;;;;5.03;3.13;;;;;;;21.12;69.65;98200.69;5001240;28;20034;-76
2021/06/12 07:29:46;;;;;;;7.78;5.50;;;;;;;21.17;69.22;98192.09;5000798;28;20027;-76
2021/06/12 07:32:12;;;;;;;9.40;6.55;;;;;;;21.42;68.65;98201.06;5005548;28;20026;-76
2021/06/12 07:34:37;;;;;;;3.88;3.50;;;;;;;21.50;67.91;98190.91;4999794;28;20029;-79
2021/06/12 07:37:03;;;;;;;3.90;3.50;;;;;;;21.63;66.51;98195.19;4999428;28;20030;-74
2021/06/12 07:39:29;;;;;;;4.55;3.83;;;;;;;21.75;66.24;98203.44;5000007;28;20090;-74
2021/06/12 07:41:55;;;;;;;4.05;3.33;;;;;;;21.91;65.08;98195.88;4987004;28;20038;-79
2021/06/12 07:44:21;;;;;;;3.40;2.90;;;;;;;22.35;64.19;98205.63;5009943;28;20079;-75
2021/06/12 07:46:46;;;;;;;6.93;3.17;;;;;;;21.92;64.27;98197.50;4985489;28;20050;-74
2021/06/12 07:49:14;;;;;;;8.55;3.70;;;;;;;22.63;63.30;98210.16;5000339;28;20041;-76
2021/06/12 07:51:40;;;;;;;6.93;5.18;;;;;;;23.27;60.04;98198.25;5001359;28;20030;-77
2021/06/12 07:54:06;;;;;;;5.30;3.70;;;;;;;23.55;58.97;98203.53;5001657;28;20499;-75
2021/06/12 07:56:32;;;;;;;3.63;3.13;;;;;;;23.49;58.40;98196.63;5000236;28;20065;-79
2021/06/12 07:58:58;;;;;;;5.32;3.20;;;;;;;23.08;60.46;98192.72;4995048;28;20030;-76
2021/06/12 08:01:23;;;;;;;4.65;3.97;;;;;;;23.41;59.14;98202.09;4991138;28;20570;-76
2021/06/12 08:03:49;;;;;;;3.30;2.83;;;;;;;23.40;58.62;98197.69;4990804;28;20030;-73
2021/06/12 08:06:15;;;;;;;8.45;3.65;;;;;;;23.56;57.99;98202.31;4990945;28;20113;-73
2021/06/12 08:08:40;;;;;;;4.75;3.15;;;;;;;23.17;58.73;98194.09;4987774;28;20024;-75
2021/06/12 08:11:06;;;;;;;3.60;3.28;;;;;;;23.27;58.19;98201.03;5010128;28;20029;-75
2021/06/12 08:13:32;;;;;;;4.25;3.05;;;;;;;23.44;58.05;98192.97;5010387;28;20022;-75
2021/06/12 08:15:57;;;;;;;5.10;3.00;;;;;;;23.25;58.17;98193.00;5010275;28;20121;-75
2021/06/12 08:18:23;;;;;;;4.40;3.30;;;;;;;23.15;58.54;98188.03;5009560;28;20042;-72
2021/06/12 08:20:49;;;;;;;4.20;3.47;;;;;;;22.48;60.08;98195.13;5010237;28;20467;-73
2021/06/12 08:23:15;;;;;;;5.18;3.30;;;;;;;22.52;60.64;98187.66;5009906;28;20030;-77
2021/06/12 08:25:41;;;;;;;4.38;3.17;;;;;;;22.90;60.26;98190.38;5009970;28;20036;-76
2021/06/12 08:28:06;;;;;;;5.35;3.78;;;;;;;22.94;59.91;98187.66;5010306;28;20391;-78
2021/06/12 08:30:36;;;;;;;4.30;2.75;;;;;;;23.43;59.38;98185.75;5006583;28;20041;-77
2021/06/12 08:33:07;;;;;;;4.57;3.72;;;;;;;24.85;55.11;98187.75;4990587;28;20031;-77
2021/06/12 08:35:34;;;;;;;3.58;3.08;;;;;;;24.71;54.44;98190.38;5006781;28;20026;-77
2021/06/12 08:38:00;;;;;;;5.25;3.47;;;;;;;25.01;54.15;98185.53;4992354;28;20237;-78
2021/06/12 08:40:26;;;;;;;4.95;3.28;;;;;;;25.48;52.24;98182.75;5009316;28;20157;-78
2021/06/12 08:42:53;;;;;;;4.13;3.13;;;;;;;25.92;51.85;98181.91;5008742;28;20033;-77
2021/06/12 08:45:22;;;;;;;6.07;3.40;;;;;;;25.64;51.84;98176.09;5009835;28;20030;-77
2021/06/12 08:47:48;;;;;;;3.50;2.63;;;;;;;25.71;51.42;98179.78;5009444;28;20121;-74
2021/06/12 08:50:14;;;;;;;3.28;2.97;;;;;;;25.86;51.46;98187.06;4988872;28;20141;-74
2021/06/12 08:52:40;;;;;;;5.05;2.97;;;;;;;25.96;51.90;98177.13;4999356;28;20130;-77
2021/06/12 08:55:10;;;;;;;5.28;2.88;;;;;;;25.74;50.72;98183.78;5006486;28;20483;-73
2021/06/12 08:57:37;;;;;;;4.22;2.92;;;;;;;25.48;51.05;98182.75;4994968;28;20034;-75
2021/06/12 09:00:05;;;;;;;4.97;3.13;;;;;;;26.19;50.78;98180.47;4990192;28;20396;-73
2021/06/12 09:03:09;;;;;;;3.80;2.65;;;;;;;26.11;50.80;98181.63;4992344;28;20069;-76
2021/06/12 09:05:50;;;;;;;3.60;3.28;;;;;;;25.75;52.70;98179.78;4995674;28;20105;-80
2021/06/12 09:08:22;;;;;;;3.35;2.85;;;;;;;25.66;52.01;98174.50;4994326;28;20420;-72
2021/06/12 09:11:18;;;;;;;3.28;2.75;;;;;;;25.75;52.10;98182.59;4997244;28;20033;-76
2021/06/12 09:13:53;;;;;;;3.42;2.80;;;;;;;26.00;52.39;98166.75;4987453;28;20138;-74
2021/06/12 09:16:30;;;;;;;7.47;3.70;;;;;;;26.09;51.40;98164.38;4999676;28;20034;-74
2021/06/12 09:19:23;;;;;;;6.85;3.67;;;;;;;26.16;49.55;98167.25;5010366;28;20735;-78
2021/06/12 09:22:09;;;;;;;3.55;3.25;;;;;;;25.90;50.75;98168.28;5003440;28;20029;-74
2021/06/12 09:24:39;;;;;;;3.50;2.85;;;;;;;26.32;48.96;98156.50;4995721;28;20779;-74
2021/06/12 09:27:11;;;;;;;5.43;3.08;;;;;;;26.20;47.77;98156.84;5001724;28;20093;-72
2021/06/12 09:29:44;;;;;;;3.53;2.58;;;;;;;26.27;47.46;98150.47;5003367;28;20058;-72
2021/06/12 09:32:20;;;;;;;3.45;2.55;;;;;;;26.69;47.44;98150.59;5000526;28;20487;-71
2021/06/12 09:34:49;;;;;;;3.13;2.50;;;;;;;26.96;47.04;98146.31;5001242;28;20037;-74
2021/06/12 09:37:20;;;;;;;8.60;4.05;;;;;;;27.24;45.36;98133.47;5000831;28;20029;-73
2021/06/12 09:40:21;;;;;;;4.13;2.03;;;;;;;27.26;42.84;98131.06;4997093;28;20161;-72
2021/06/12 09:42:53;;;;;;;3.22;2.00;;;;;;;27.28;42.77;98129.47;4959144;28;20149;-76
2021/06/12 09:45:23;;;;;;;3.80;2.00;;;;;;;27.44;43.61;98132.69;5001298;28;20018;-74
2021/06/12 09:47:49;;;;;;;3.90;2.40;;;;;;;27.75;43.76;98131.06;5001930;28;20042;-75
2021/06/12 09:50:19;;;;;;;5.32;2.05;;;;;;;27.22;43.35;98133.09;5000582;28;20037;-75
2021/06/12 09:52:48;;;;;;;1.70;1.60;;;;;;;27.03;42.19;98129.44;4985169;28;20022;-75
2021/06/12 09:55:29;;;;;;;2.10;1.92;;;;;;;27.08;40.76;98123.44;5000935;28;20084;-73
2021/06/12 09:57:57;;;;;;;6.57;2.10;;;;;;;27.70;37.99;98127.84;5000826;28;20128;-72
2021/06/12 10:00:36;;;;;;;1.98;1.67;;;;;;;28.15;38.17;98124.97;5002139;28;20046;-73
2021/06/12 10:03:03;;;;;;;1.60;1.50;;;;;;;27.37;38.20;98127.06;5001011;28;20117;-74
2021/06/12 10:05:29;;;;;;;2.08;1.50;;;;;;;27.37;38.24;98126.25;5003822;28;20037;-74
2021/06/12 10:07:55;;;;;;;1.85;1.70;;;;;;;27.37;37.12;98132.69;5000297;28;20550;-74
2021/06/12 10:10:21;;;;;;;1.60;1.48;;;;;;;28.06;36.94;98129.41;5002433;28;20060;-74
2021/06/12 10:12:48;;;;;;;1.70;1.60;;;;;;;28.37;36.57;98138.94;5001162;28;20498;-74
2021/06/12 10:15:16;;;;;;;1.55;1.45;;;;;;;28.45;36.67;98130.03;4983054;28;20057;-74
2021/06/12 10:17:41;;;;;;;1.92;1.55;;;;;;;28.90;36.24;98130.22;5002987;28;20479;-77
2021/06/12 10:20:08;;;;;;;1.88;1.70;;;;;;;28.94;34.59;98128.19;5000565;28;20037;-78
2021/06/12 10:22:34;;;;;;;1.45;1.30;;;;;;;29.02;34.17;98126.94;4972270;28;20117;-78
2021/06/12 10:25:00;;;;;;;1.48;1.38;;;;;;;29.28;34.71;98126.38;5001028;28;20603;-75
2021/06/12 10:27:26;;;;;;;1.98;1.70;;;;;;;29.41;33.90;98119.00;4983251;28;20037;-75
2021/06/12 10:29:55;;;;;;;1.50;1.40;;;;;;;29.59;33.34;98114.00;5002932;28;20056;-77
2021/06/12 10:32:21;;;;;;;1.90;1.75;;;;;;;29.98;33.63;98115.66;5000234;28;20542;-74
2021/06/12 10:34:51;;;;;;;2.03;1.77;;;;;;;29.85;33.78;98111.75;4986664;28;20116;-73
2021/06/12 10:37:17;;;;;;;1.48;1.38;;;;;;;29.90;32.72;98105.66;5000146;28;20438;-73
2021/06/12 10:39:43;;;;;;;3.03;2.05;;;;;;;29.68;33.63;98105.84;4998192;28;20030;-76
2021/06/12 10:42:15;;;;;;;2.65;1.95;;;;;;;28.74;35.95;98107.41;4981761;28;20034;-72
2021/06/12 10:44:43;;;;;;;2.03;1.65;;;;;;;28.62;34.95;98095.38;5000982;28;20026;-75
2021/06/12 10:47:09;;;;;;;2.30;1.80;;;;;;;28.64;38.04;98095.75;4984607;28;20135;-80
2021/06/12 10:49:35;;;;;;;2.38;2.00;;;;;;;28.82;38.74;98095.66;5000806;28;20141;-79
2021/06/12 10:52:04;;;;;;;4.22;2.10;;;;;;;29.04;36.86;98087.88;5001935;28;20022;-76
2021/06/12 10:54:37;;;;;;;2.22;2.03;;;;;;;28.19;36.51;98089.16;4999774;28;20085;-80
2021/06/12 10:57:11;;;;;;;1.90;1.77;;;;;;;27.84;35.92;98091.28;4999987;28;20180;-76
2021/06/12 10:59:38;;;;;;;2.83;2.20;;;;;;;28.05;37.55;98082.78;4999894;28;20034;-78
2021/06/12 11:02:11;;;;;;;6.97;2.35;;;;;;;27.76;38.46;98072.78;4998843;28;20033;-78
2021/06/12 11:04:52;;;;;;;2.85;1.88;;;;;;;27.83;37.40;98075.59;4996467;28;20057;-78
2021/06/12 11:07:26;;;;;;;2.08;1.88;;;;;;;27.42;36.92;98078.06;5000594;28;20434;-78
2021/06/12 11:09:52;;;;;;;1.90;1.70;;;;;;;27.57;37.58;98068.41;5003072;28;20033;-80
2021/06/12 11:12:17;;;;;;;4.28;1.77;;;;;;;27.31;37.67;98066.03;4999354;28;20487;-78
2021/06/12 11:15:21;;;;;;;5.63;2.88;;;;;;;27.71;38.48;98061.97;4999665;28;20028;-76
2021/06/12 11:18:11;;;;;;;2.25;1.80;;;;;;;27.76;36.47;98064.34;4999001;28;20050;-78
2021/06/12 11:20:37;;;;;;;4.07;1.90;;;;;;;27.34;38.30;98056.81;5003912;28;20050;-77
2021/06/12 11:23:04;;;;;;;4.15;1.92;;;;;;;27.31;39.96;98055.63;4996282;28;20394;-76
2021/06/12 11:25:29;;;;;;;2.78;1.98;;;;;;;27.19;41.00;98058.81;4999910;28;20429;-78
2021/06/12 11:28:22;;;;;;;1.85;1.65;;;;;;;27.26;38.87;98058.81;4999652;28;20061;-78
2021/06/12 11:30:50;;;;;;;2.92;1.80;;;;;;;27.27;38.00;98059.63;5007221;28;20022;-77
2021/06/12 11:33:15;;;;;;;2.70;2.22;;;;;;;26.76;40.80;98043.13;5007264;28;20076;-77